Time;durP1;ratioP1;P1;durP2;ratioP2;P2;SDS_P1;SDS_P2;PMS_P1;PMS_P2;Temp;Humidity;BMP_temperature;BMP_pressure;BME280_temperature;BME280_humidity;BME280_pressure;Samples;Min_cycle;Max_cycle;Signal;HPM_P1;HPM_P2
2022/03/19 00:00:09;;;;;;;47.60;22.05;;;8.00;89.00;;;;;;6229731;28;20073;-80
2022/03/19 00:03:11;;;;;;;58.60;24.45;;;8.00;89.70;;;;;;6230058;28;20070;-81
2022/03/19 00:06:14;;;;;;;46.03;19.73;;;8.00;89.10;;;;;;6227821;28;20045;-81
2022/03/19 00:09:16;;;;;;;51.63;23.10;;;8.00;89.10;;;;;;6201206;28;20053;-80
2022/03/19 00:12:18;;;;;;;45.15;20.77;;;8.00;89.20;;;;;;6230670;28;20549;-81
2022/03/19 00:15:20;;;;;;;53.05;24.05;;;7.90;89.20;;;;;;6236333;28;20136;-80
2022/03/19 00:18:22;;;;;;;49.33;23.02;;;7.90;89.30;;;;;;6233042;28;20046;-80
2022/03/19 00:21:25;;;;;;;38.92;19.80;;;7.80;89.50;;;;;;6232713;28;20418;-80
2022/03/19 00:24:27;;;;;;;52.72;24.05;;;7.80;89.50;;;;;;6233915;28;20041;-80
2022/03/19 00:27:29;;;;;;;46.78;22.73;;;7.80;89.60;;;;;;6234299;28;20046;-80
2022/03/19 00:30:31;;;;;;;49.42;22.23;;;7.80;89.80;;;;;;6234024;28;20042;-81
2022/03/19 00:33:33;;;;;;;39.42;21.50;;;7.80;89.80;;;;;;6232968;28;20038;-80
2022/03/19 00:36:36;;;;;;;52.60;23.52;;;7.70;89.80;;;;;;6233498;28;20079;-82
2022/03/19 00:39:38;;;;;;;49.97;23.60;;;7.70;90.00;;;;;;6233662;28;20054;-80
2022/03/19 00:42:39;;;;;;;44.95;21.83;;;7.70;90.00;;;;;;6233139;28;20084;-80
2022/03/19 00:45:41;;;;;;;46.63;22.15;;;7.60;90.00;;;;;;6232597;28;20109;-80
2022/03/19 00:48:43;;;;;;;52.65;23.20;;;7.60;90.00;;;;;;6232758;28;20048;-79
2022/03/19 00:51:46;;;;;;;52.15;22.98;;;7.60;90.00;;;;;;6234051;28;20132;-80
2022/03/19 00:54:48;;;;;;;65.45;23.55;;;7.60;90.10;;;;;;6233542;28;20489;-80
2022/03/19 00:57:50;;;;;;;49.85;22.00;;;7.50;90.10;;;;;;6234067;28;20629;-80
2022/03/19 01:00:52;;;;;;;54.35;23.45;;;7.60;90.30;;;;;;6232612;28;20514;-80
2022/03/19 01:03:54;;;;;;;47.58;21.77;;;7.50;90.30;;;;;;6232768;28;20054;-80
2022/03/19 01:06:57;;;;;;;40.33;21.55;;;7.50;90.30;;;;;;6232465;28;20139;-80
2022/03/19 01:09:59;;;;;;;52.47;26.25;;;7.50;90.20;;;;;;6232844;28;20496;-80
2022/03/19 01:13:00;;;;;;;49.00;20.83;;;7.50;90.20;;;;;;6233057;28;20050;-80
2022/03/19 01:16:03;;;;;;;44.33;20.60;;;7.50;90.30;;;;;;6232631;28;20069;-80
2022/03/19 01:19:04;;;;;;;50.33;24.73;;;7.50;90.30;;;;;;6232882;28;20070;-79
2022/03/19 01:22:08;;;;;;;39.85;19.75;;;7.50;90.30;;;;;;6231095;28;20046;-80
2022/03/19 01:25:11;;;;;;;53.60;23.17;;;7.50;90.40;;;;;;6232708;28;20196;-80
2022/03/19 01:28:13;;;;;;;43.72;20.92;;;7.40;90.30;;;;;;6233856;28;20042;-80
2022/03/19 01:31:14;;;;;;;55.72;24.10;;;7.40;90.40;;;;;;6233915;28;20427;-79
2022/03/19 01:34:16;;;;;;;52.08;21.05;;;7.40;90.40;;;;;;6231969;28;20041;-80
2022/03/19 01:37:19;;;;;;;47.03;21.15;;;7.40;90.50;;;;;;6231235;28;20053;-80
2022/03/19 01:40:21;;;;;;;55.33;25.67;;;7.40;90.50;;;;;;6232836;28;20045;-81
2022/03/19 01:43:23;;;;;;;54.25;22.13;;;7.40;90.40;;;;;;6234428;28;20064;-81
2022/03/19 01:46:25;;;;;;;47.55;21.17;;;7.40;90.40;;;;;;6233461;28;20052;-80
2022/03/19 01:49:28;;;;;;;46.22;21.00;;;7.40;90.40;;;;;;6233618;28;20549;-80
2022/03/19 01:52:31;;;;;;;39.75;19.35;;;7.40;90.40;;;;;;6231761;28;20045;-80
2022/03/19 01:55:33;;;;;;;58.63;23.25;;;7.40;90.40;;;;;;6233939;28;20085;-80
2022/03/19 01:58:36;;;;;;;53.58;21.67;;;7.40;90.40;;;;;;6230845;28;20045;-80
2022/03/19 02:01:38;;;;;;;41.35;17.33;;;7.30;90.40;;;;;;6234217;28;20109;-81
2022/03/19 02:04:41;;;;;;;47.00;21.23;;;7.30;90.50;;;;;;6231510;28;20523;-80
2022/03/19 02:07:48;;;;;;;35.83;16.50;;;7.30;90.50;;;;;;6232477;28;20049;-81
2022/03/19 02:10:50;;;;;;;56.85;24.83;;;7.30;90.50;;;;;;6234286;28;20057;-81
2022/03/19 02:13:51;;;;;;;54.60;24.00;;;7.30;90.40;;;;;;6231543;28;20057;-80
2022/03/19 02:16:54;;;;;;;54.92;23.42;;;7.30;90.50;;;;;;6231679;28;20048;-81
2022/03/19 02:19:57;;;;;;;52.25;24.38;;;7.30;90.60;;;;;;6231210;28;20042;-80
2022/03/19 02:26:19;;;;;;;45.67;22.25;;;7.30;90.60;;;;;;6231537;28;20042;-80
2022/03/19 02:29:21;;;;;;;56.42;22.23;;;7.20;90.60;;;;;;6231702;28;20050;-80
2022/03/19 02:32:23;;;;;;;42.47;19.83;;;7.20;90.70;;;;;;6231318;28;20048;-81
2022/03/19 02:35:25;;;;;;;52.13;22.33;;;7.20;91.00;;;;;;6227864;28;20057;-80
2022/03/19 02:38:28;;;;;;;51.08;20.60;;;7.20;90.70;;;;;;6226871;28;20058;-80
2022/03/19 02:41:29;;;;;;;50.03;21.05;;;7.20;90.80;;;;;;6226809;28;20050;-80
2022/03/19 02:44:32;;;;;;;34.53;15.98;;;7.20;90.80;;;;;;6225826;28;20042;-80
2022/03/19 02:47:56;;;;;;;48.10;19.38;;;7.10;90.80;;;;;;6225923;28;20680;-80
2022/03/19 02:50:56;;;;;;;46.53;19.92;;;7.10;90.80;;;;;;6228035;28;20046;-81
2022/03/19 02:53:59;;;;;;;47.47;22.13;;;7.10;90.80;;;;;;6226624;28;20037;-80
2022/03/19 02:57:01;;;;;;;50.90;20.20;;;7.10;90.90;;;;;;6226153;28;20503;-80
2022/03/19 03:00:03;;;;;;;36.90;18.50;;;7.10;90.90;;;;;;6227085;28;20046;-80
2022/03/19 03:03:05;;;;;;;38.67;17.75;;;7.10;91.00;;;;;;6227438;28;20049;-80
2022/03/19 03:06:07;;;;;;;40.45;17.90;;;7.00;91.00;;;;;;6226750;28;20049;-80
2022/03/19 03:09:11;;;;;;;52.15;22.58;;;7.10;91.10;;;;;;6226055;28;20419;-80
2022/03/19 03:12:13;;;;;;;40.25;18.50;;;7.00;91.00;;;;;;6225921;28;20060;-80
2022/03/19 03:15:15;;;;;;;44.63;22.27;;;7.00;91.00;;;;;;6225243;28;20056;-80
2022/03/19 03:18:17;;;;;;;42.85;19.02;;;7.00;91.10;;;;;;6225320;28;20056;-80
2022/03/19 03:21:19;;;;;;;42.83;21.13;;;7.00;91.10;;;;;;6224610;28;20133;-80
2022/03/19 03:24:22;;;;;;;46.05;21.10;;;7.00;91.10;;;;;;6225085;28;20120;-80
2022/03/19 03:27:24;;;;;;;41.63;16.10;;;7.00;91.00;;;;;;6226675;28;20056;-80
2022/03/19 03:30:26;;;;;;;44.35;20.38;;;7.00;91.10;;;;;;6225261;28;20049;-81
2022/03/19 03:33:28;;;;;;;42.72;17.65;;;7.00;91.10;;;;;;6224720;28;20411;-80
2022/03/19 03:36:30;;;;;;;45.20;21.00;;;6.90;91.10;;;;;;6225533;28;20181;-80
2022/03/19 03:39:33;;;;;;;47.42;21.55;;;6.90;91.10;;;;;;6225582;28;20100;-80
2022/03/19 03:42:35;;;;;;;49.70;20.70;;;6.90;91.10;;;;;;6224792;28;20053;-80
2022/03/19 03:45:38;;;;;;;46.85;20.00;;;6.90;91.10;;;;;;6225213;28;20414;-80
2022/03/19 03:48:39;;;;;;;42.22;17.63;;;6.90;91.20;;;;;;6226240;28;20050;-80
2022/03/19 03:51:42;;;;;;;43.90;18.20;;;6.90;91.20;;;;;;6224837;28;20136;-80
2022/03/19 03:54:45;;;;;;;48.22;22.63;;;6.90;91.20;;;;;;6224297;28;20136;-80
2022/03/19 03:57:47;;;;;;;47.50;22.40;;;6.90;91.20;;;;;;6225295;28;20052;-80
2022/03/19 04:00:48;;;;;;;48.67;24.35;;;6.90;91.20;;;;;;6224310;28;20531;-80
2022/03/19 04:03:50;;;;;;;42.50;17.85;;;6.80;91.20;;;;;;6225643;28;20491;-81
2022/03/19 04:06:52;;;;;;;50.00;20.20;;;6.90;91.30;;;;;;6225006;28;20132;-80
2022/03/19 04:09:55;;;;;;;42.03;21.15;;;6.80;91.20;;;;;;6225536;28;20421;-80
2022/03/19 04:12:57;;;;;;;53.78;23.05;;;6.80;91.20;;;;;;6198367;28;20050;-80
2022/03/19 04:15:58;;;;;;;43.85;20.67;;;6.80;91.20;;;;;;6223223;28;20093;-80
2022/03/19 04:19:00;;;;;;;42.00;18.20;;;6.80;91.30;;;;;;6224418;28;20050;-80
2022/03/19 04:22:02;;;;;;;55.70;21.70;;;6.70;91.30;;;;;;6224688;28;20057;-80
2022/03/19 04:25:10;;;;;;;46.63;20.75;;;6.70;91.40;;;;;;6224130;28;20048;-80
2022/03/19 04:28:12;;;;;;;;;;;6.70;91.40;;;;;;6224966;28;20042;-80
2022/03/19 04:31:13;;;;;;;41.95;18.92;;;6.70;91.50;;;;;;6224312;28;20409;-80
2022/03/19 04:34:15;;;;;;;45.58;21.17;;;6.60;91.40;;;;;;6223394;28;20076;-80
2022/03/19 04:37:17;;;;;;;41.50;20.73;;;6.60;91.50;;;;;;6224397;28;20116;-80
2022/03/19 04:40:20;;;;;;;52.45;22.42;;;6.60;91.50;;;;;;6224114;28;20507;-80
2022/03/19 04:43:22;;;;;;;47.63;19.95;;;6.50;91.60;;;;;;6225076;28;20156;-80
2022/03/19 04:46:24;;;;;;;51.30;20.85;;;6.50;91.60;;;;;;6223562;28;20500;-80
2022/03/19 04:49:26;;;;;;;47.88;21.08;;;6.50;91.70;;;;;;6224749;28;20046;-80
2022/03/19 04:52:28;;;;;;;46.63;21.60;;;6.50;91.70;;;;;;6224634;28;20121;-80
2022/03/19 04:55:31;;;;;;;42.80;19.05;;;6.50;91.70;;;;;;6224417;28;20053;-80
2022/03/19 04:58:33;;;;;;;54.97;22.48;;;6.50;91.70;;;;;;6227154;28;20052;-80
2022/03/19 05:01:35;;;;;;;47.60;20.65;;;6.50;91.70;;;;;;6228829;28;20050;-80
2022/03/19 05:04:37;;;;;;;53.28;22.42;;;6.50;91.70;;;;;;6229701;28;20411;-80
2022/03/19 05:07:39;;;;;;;56.22;21.58;;;6.50;91.70;;;;;;6230500;28;20050;-80
2022/03/19 05:14:01;;;;;;;48.67;20.52;;;6.50;91.60;;;;;;6230545;28;20050;-80
2022/03/19 05:17:04;;;;;;;53.00;22.40;;;6.50;91.70;;;;;;6230872;28;20056;-80
2022/03/19 05:20:07;;;;;;;51.92;24.05;;;6.50;91.70;;;;;;6228862;28;20526;-80
2022/03/19 05:23:09;;;;;;;49.75;21.45;;;6.50;91.70;;;;;;6230255;28;20129;-80
2022/03/19 05:26:12;;;;;;;50.03;20.88;;;6.50;91.60;;;;;;6229966;28;20045;-80
2022/03/19 05:29:14;;;;;;;50.92;23.10;;;6.50;91.60;;;;;;6228190;28;20120;-80
2022/03/19 05:32:17;;;;;;;35.40;16.35;;;6.50;91.70;;;;;;6230216;28;20041;-81
2022/03/19 05:35:19;;;;;;;50.60;18.92;;;6.50;91.70;;;;;;6231173;28;20129;-80
2022/03/19 05:38:21;;;;;;;49.33;22.40;;;6.50;91.70;;;;;;6230631;28;20100;-80
2022/03/19 05:41:24;;;;;;;44.72;19.40;;;6.40;91.70;;;;;;6230337;28;20046;-80
2022/03/19 05:44:26;;;;;;;51.15;21.45;;;6.40;91.70;;;;;;6228362;28;20048;-80
2022/03/19 05:47:28;;;;;;;57.80;22.42;;;6.50;91.70;;;;;;6229466;28;20085;-80
2022/03/19 05:50:31;;;;;;;46.90;19.35;;;6.50;91.70;;;;;;6229969;28;20061;-81
2022/03/19 05:53:32;;;;;;;53.92;24.00;;;6.50;91.60;;;;;;6231674;28;20645;-81
2022/03/19 05:56:36;;;;;;;48.92;22.73;;;6.50;91.60;;;;;;6230125;28;20041;-81
2022/03/19 05:59:38;;;;;;;48.58;20.90;;;6.60;91.50;;;;;;6230201;28;20180;-81
2022/03/19 06:02:40;;;;;;;48.08;20.08;;;6.70;91.40;;;;;;6231431;28;20057;-80
2022/03/19 06:05:42;;;;;;;39.78;19.13;;;6.70;91.30;;;;;;6229070;28;20050;-81
2022/03/19 06:08:44;;;;;;;43.90;20.63;;;6.70;91.20;;;;;;6229437;28;20044;-81
2022/03/19 06:11:47;;;;;;;39.97;20.60;;;6.70;91.20;;;;;;6229774;28;20057;-81
2022/03/19 06:14:53;;;;;;;44.05;19.40;;;6.80;91.10;;;;;;6230316;28;20092;-81
2022/03/19 06:17:55;;;;;;;39.80;18.92;;;6.90;90.90;;;;;;6229932;28;20049;-81
2022/03/19 06:20:57;;;;;;;39.85;17.48;;;7.00;90.70;;;;;;6230312;28;20140;-81
2022/03/19 06:23:59;;;;;;;53.45;19.95;;;7.00;90.60;;;;;;6229660;28;20048;-81
2022/03/19 06:27:02;;;;;;;40.28;20.20;;;7.10;90.50;;;;;;6229086;28;20133;-81
2022/03/19 06:30:04;;;;;;;41.50;18.00;;;7.20;90.30;;;;;;6229654;28;20046;-81
2022/03/19 06:33:06;;;;;;;33.72;17.83;;;7.30;90.10;;;;;;6228069;28;20046;-81
2022/03/19 06:39:28;;;;;;;44.85;20.90;;;7.40;89.90;;;;;;6228555;28;20057;-81
2022/03/19 06:42:31;;;;;;;48.30;18.92;;;7.50;89.70;;;;;;6227219;28;20127;-81
2022/03/19 06:45:32;;;;;;;46.60;21.00;;;7.60;88.90;;;;;;6225943;28;20038;-80
2022/03/19 06:48:34;;;;;;;51.63;21.88;;;7.70;88.50;;;;;;6227562;28;20504;-81
2022/03/19 06:51:36;;;;;;;45.13;19.00;;;7.80;88.10;;;;;;6227853;28;20054;-80
2022/03/19 06:54:38;;;;;;;38.85;17.25;;;7.90;87.20;;;;;;6226656;28;20102;-81
2022/03/19 06:57:41;;;;;;;45.33;17.15;;;8.00;87.10;;;;;;6227672;28;20073;-81
2022/03/19 07:00:43;;;;;;;34.40;18.73;;;8.00;86.70;;;;;;6227576;28;20038;-81
2022/03/19 07:03:46;;;;;;;37.10;17.38;;;8.00;86.20;;;;;;6227140;28;20049;-81
2022/03/19 07:06:48;;;;;;;40.38;18.80;;;8.10;86.00;;;;;;6226993;28;20103;-81
2022/03/19 07:09:51;;;;;;;45.33;18.02;;;8.20;85.40;;;;;;6226393;28;20046;-80
2022/03/19 07:12:56;;;;;;;39.85;19.20;;;8.30;85.00;;;;;;6228329;28;20428;-80
2022/03/19 07:15:57;;;;;;;37.45;16.80;;;8.40;84.40;;;;;;6228361;28;20054;-80
2022/03/19 07:18:59;;;;;;;43.58;20.38;;;8.60;84.50;;;;;;6228309;28;20054;-78
2022/03/19 07:22:01;;;;;;;34.72;16.88;;;8.70;83.10;;;;;;6230402;28;20573;-78
2022/03/19 07:25:03;;;;;;;33.85;17.02;;;8.80;82.80;;;;;;6229209;28;20085;-78
2022/03/19 07:28:09;;;;;;;41.13;19.05;;;8.90;82.20;;;;;;6229817;28;20048;-79
2022/03/19 07:31:11;;;;;;;46.67;20.98;;;9.20;81.90;;;;;;6231470;28;20053;-79
2022/03/19 07:34:13;;;;;;;44.35;20.70;;;9.70;80.10;;;;;;6229851;28;20050;-79
2022/03/19 07:37:15;;;;;;;37.00;18.77;;;10.60;77.40;;;;;;6231650;28;20042;-79
2022/03/19 07:41:45;;;;;;;38.67;18.70;;;11.90;73.30;;;;;;6231468;28;20052;-80
2022/03/19 07:43:41;;;;;;;31.20;14.40;;;12.90;69.00;;;;;;6227762;28;20491;-79
2022/03/19 07:46:43;;;;;;;35.72;17.17;;;13.60;65.30;;;;;;6231057;28;20069;-79
2022/03/19 07:49:45;;;;;;;37.20;17.65;;;13.50;64.90;;;;;;6231673;28;20053;-79
2022/03/19 07:52:47;;;;;;;37.90;18.70;;;13.50;65.10;;;;;;6231310;28;20042;-82
2022/03/19 07:55:50;;;;;;;37.45;18.20;;;13.40;64.50;;;;;;6230978;28;20049;-79
2022/03/19 07:58:53;;;;;;;33.78;17.25;;;12.80;65.10;;;;;;6234712;28;20431;-79
2022/03/19 08:01:55;;;;;;;31.48;16.52;;;12.30;66.40;;;;;;6233091;28;20129;-79
2022/03/19 08:04:58;;;;;;;34.33;18.08;;;12.00;67.30;;;;;;6231324;28;20073;-78
2022/03/19 08:08:00;;;;;;;30.60;16.17;;;12.00;68.30;;;;;;6230752;28;20048;-79
2022/03/19 08:11:02;;;;;;;37.33;16.70;;;12.10;67.30;;;;;;6229969;28;20148;-79
2022/03/19 08:14:06;;;;;;;32.15;17.48;;;11.90;66.90;;;;;;6225816;28;20056;-79
2022/03/19 08:17:07;;;;;;;33.53;16.92;;;11.90;67.50;;;;;;6225116;28;20054;-79
2022/03/19 08:20:10;;;;;;;32.45;16.77;;;12.00;67.30;;;;;;6226377;28;20531;-79
2022/03/19 08:23:15;;;;;;;28.80;14.48;;;12.30;66.90;;;;;;6226415;28;20203;-79
2022/03/19 08:26:16;;;;;;;30.70;15.43;;;12.70;64.30;;;;;;6225166;28;20053;-79
2022/03/19 08:29:23;;;;;;;27.40;12.50;;;12.90;63.00;;;;;;6225569;28;20389;-79
2022/03/19 08:32:25;;;;;;;33.25;15.88;;;13.30;63.00;;;;;;6225863;28;20042;-78
2022/03/19 08:35:27;;;;;;;26.05;12.85;;;13.60;61.00;;;;;;6254208;22;20113;-81
2022/03/19 08:41:48;;;;;;;29.98;15.98;;;13.50;60.40;;;;;;6243273;28;20041;-78
2022/03/19 08:44:51;;;;;;;34.17;16.73;;;13.70;60.40;;;;;;6246272;28;20049;-80
2022/03/19 08:47:53;;;;;;;28.13;15.38;;;14.00;58.60;;;;;;6227861;28;20052;-78
2022/03/19 08:51:39;;;;;;;25.83;12.90;;;14.80;58.20;;;;;;6232441;28;20045;-79
2022/03/19 08:54:18;;;;;;;42.88;14.85;;;16.20;53.40;;;;;;6226855;28;20049;-79
2022/03/19 08:57:21;;;;;;;23.02;13.50;;;16.70;51.20;;;;;;6227148;28;20046;-80
2022/03/19 09:00:24;;;;;;;27.30;13.75;;;17.00;49.00;;;;;;6251372;28;20060;-79
2022/03/19 09:03:26;;;;;;;27.05;15.15;;;16.40;48.80;;;;;;6250150;28;20049;-78
2022/03/19 09:06:28;;;;;;;32.13;14.23;;;15.90;50.20;;;;;;6242437;28;20050;-79
2022/03/19 09:09:29;;;;;;;25.65;14.38;;;15.60;51.10;;;;;;6251526;28;20526;-77
2022/03/19 09:12:31;;;;;;;30.77;13.60;;;15.40;51.90;;;;;;6250690;28;20045;-78
2022/03/19 09:15:34;;;;;;;28.58;13.43;;;15.40;52.50;;;;;;6250004;28;20139;-77
2022/03/19 09:18:36;;;;;;;29.33;14.93;;;15.50;51.80;;;;;;6250123;28;20045;-79
2022/03/19 09:21:38;;;;;;;21.38;10.85;;;15.30;52.10;;;;;;6249802;28;20176;-79
2022/03/19 09:24:40;;;;;;;31.95;16.13;;;15.30;52.90;;;;;;6248499;28;20089;-79
2022/03/19 09:27:41;;;;;;;25.48;13.35;;;15.30;51.70;;;;;;6249449;28;20493;-80
2022/03/19 09:30:45;;;;;;;26.13;14.77;;;15.30;50.60;;;;;;6250566;28;20739;-79
2022/03/19 09:33:47;;;;;;;34.63;15.52;;;15.40;52.30;;;;;;6249983;28;20415;-78
2022/03/19 09:36:49;;;;;;;27.02;13.48;;;15.70;50.60;;;;;;6211932;28;1087094;-79
2022/03/19 09:39:52;;;;;;;26.33;13.15;;;16.00;49.60;;;;;;6251311;28;20102;-79
2022/03/19 09:42:57;;;;;;;25.45;13.80;;;15.60;50.40;;;;;;6244121;28;20416;-79
2022/03/19 09:46:00;;;;;;;25.13;12.32;;;15.40;51.00;;;;;;6248291;28;20121;-81
2022/03/19 09:49:02;;;;;;;26.25;14.88;;;15.30;50.60;;;;;;6253749;28;20136;-80
2022/03/19 09:52:05;;;;;;;25.80;14.50;;;15.10;51.30;;;;;;6254848;28;20099;-79
2022/03/19 09:55:07;;;;;;;29.75;14.65;;;14.80;51.30;;;;;;6253736;28;20077;-79
2022/03/19 09:58:12;;;;;;;33.22;14.30;;;14.60;52.00;;;;;;6252778;28;20049;-80
2022/03/19 10:01:18;;;;;;;25.35;13.50;;;14.50;52.70;;;;;;6252279;28;20045;-80
2022/03/19 10:04:20;;;;;;;30.60;14.73;;;14.50;52.70;;;;;;6254048;28;20060;-79
2022/03/19 10:10:42;;;;;;;29.33;12.55;;;14.60;52.90;;;;;;6251764;28;20041;-78
2022/03/19 10:13:45;;;;;;;24.23;13.50;;;14.60;52.50;;;;;;6251911;28;20390;-78
2022/03/19 10:16:51;;;;;;;27.17;15.23;;;14.70;53.10;;;;;;6249950;28;20049;-79
2022/03/19 10:19:54;;;;;;;28.98;15.35;;;14.90;52.20;;;;;;6253457;28;20517;-79
2022/03/19 10:22:58;;;;;;;28.10;12.95;;;15.00;51.00;;;;;;6251206;28;20056;-79
2022/03/19 10:26:00;;;;;;;29.08;15.82;;;15.20;51.20;;;;;;6250093;28;20053;-78
2022/03/19 10:29:03;;;;;;;29.85;16.27;;;15.20;50.20;;;;;;6251233;28;20141;-79
2022/03/19 10:32:07;;;;;;;31.13;16.45;;;15.00;50.10;;;;;;6252019;28;20406;-77
2022/03/19 10:35:30;;;;;;;30.58;16.85;;;15.20;51.00;;;;;;6250572;28;20720;-79
2022/03/19 10:38:41;;;;;;;36.55;16.33;;;15.50;49.80;;;;;;6250524;28;20053;-76
2022/03/19 10:41:43;;;;;;;39.90;16.73;;;15.50;49.60;;;;;;6250202;28;20060;-77
2022/03/19 10:44:48;;;;;;;32.50;17.10;;;15.50;50.00;;;;;;6237040;28;20060;-78
2022/03/19 10:47:51;;;;;;;29.85;17.50;;;15.60;49.50;;;;;;6224458;28;20050;-78
2022/03/19 10:50:54;;;;;;;26.17;15.77;;;15.50;49.30;;;;;;6227726;28;20147;-77
2022/03/19 10:53:57;;;;;;;33.30;18.35;;;15.70;48.90;;;;;;6224315;28;20104;-77
2022/03/19 10:57:00;;;;;;;34.55;18.13;;;15.70;49.30;;;;;;6222500;28;20042;-77
2022/03/19 11:00:03;;;;;;;32.65;17.30;;;15.90;48.20;;;;;;6227475;28;20057;-78
2022/03/19 11:03:13;;;;;;;32.60;16.75;;;15.90;46.70;;;;;;6224316;28;20108;-78
2022/03/19 11:06:15;;;;;;;32.38;18.65;;;15.60;47.20;;;;;;6225918;28;20069;-77
2022/03/19 11:09:21;;;;;;;32.38;17.48;;;15.60;48.50;;;;;;6224261;28;20050;-78
2022/03/19 11:12:26;;;;;;;30.85;17.50;;;15.70;47.80;;;;;;6236877;28;20537;-79
2022/03/19 11:15:33;;;;;;;33.22;16.55;;;15.90;48.10;;;;;;6249054;28;20418;-78
2022/03/19 11:18:38;;;;;;;32.45;17.42;;;16.30;45.50;;;;;;6249799;28;20124;-78
2022/03/19 11:21:42;;;;;;;33.20;17.55;;;16.40;44.10;;;;;;6248395;28;20054;-78
2022/03/19 11:24:49;;;;;;;27.67;15.48;;;16.40;43.70;;;;;;6248421;28;20046;-77
2022/03/19 11:27:53;;;;;;;24.85;13.68;;;16.60;42.90;;;;;;6248010;28;20495;-78
2022/03/19 11:31:03;;;;;;;29.50;14.25;;;16.60;42.10;;;;;;6248729;28;20057;-79
2022/03/19 11:34:16;;;;;;;27.13;15.00;;;16.50;42.40;;;;;;6250302;28;20049;-78
2022/03/19 11:37:18;;;;;;;27.60;14.75;;;16.50;42.00;;;;;;6247912;28;20831;-78
2022/03/19 11:40:45;;;;;;;18.65;10.35;;;16.60;41.90;;;;;;6250599;28;20045;-77
2022/03/19 11:43:47;;;;;;;23.90;12.93;;;16.50;41.20;;;;;;6243089;28;20539;-78
2022/03/19 11:46:56;;;;;;;22.30;11.77;;;16.50;41.90;;;;;;6249227;28;20057;-79
2022/03/19 11:50:02;;;;;;;29.17;13.80;;;16.30;41.10;;;;;;6248752;28;20053;-77
2022/03/19 11:53:07;;;;;;;29.15;13.00;;;16.00;41.60;;;;;;6248848;28;20515;-78
2022/03/19 11:56:08;;;;;;;14.70;8.93;;;16.10;41.70;;;;;;6248220;28;20056;-78
2022/03/19 11:59:13;;;;;;;16.60;9.80;;;16.10;41.00;;;;;;6249482;28;20045;-79
2022/03/19 12:02:15;;;;;;;16.13;8.43;;;16.20;41.70;;;;;;6249603;28;20265;-79
2022/03/19 12:05:19;;;;;;;16.95;8.98;;;16.50;40.60;;;;;;6249445;28;20049;-79
2022/03/19 12:08:22;;;;;;;13.90;7.72;;;16.30;40.20;;;;;;6249815;28;20145;-79
2022/03/19 12:11:24;;;;;;;11.80;6.43;;;16.20;39.80;;;;;;6249818;28;20046;-77
2022/03/19 12:14:26;;;;;;;16.75;7.53;;;16.10;39.60;;;;;;6249097;28;20085;-77
2022/03/19 12:17:31;;;;;;;13.30;6.68;;;16.00;40.00;;;;;;6249303;28;20045;-79
2022/03/19 12:20:42;;;;;;;16.27;7.68;;;16.00;40.30;;;;;;6250384;28;20468;-79
2022/03/19 12:23:57;;;;;;;11.63;6.30;;;16.20;40.20;;;;;;6242953;28;20046;-79
2022/03/19 12:26:58;;;;;;;13.18;6.20;;;16.40;40.00;;;;;;6252140;28;20592;-79
2022/03/19 12:30:01;;;;;;;9.85;5.65;;;16.50;40.10;;;;;;6252405;28;20045;-80
2022/03/19 12:33:03;;;;;;;10.95;5.32;;;16.80;39.20;;;;;;6250512;28;20049;-80
2022/03/19 12:36:40;;;;;;;11.32;5.10;;;16.90;38.70;;;;;;6251226;22;20045;-80
2022/03/19 12:55:28;;;;;;;8.82;4.80;;;16.80;37.00;;;;;;6149958;28;20481;-79
2022/03/19 12:59:00;;;;;;;9.07;4.90;;;16.50;36.50;;;;;;6149259;28;20078;-79
2022/03/19 13:05:57;;;;;;;6.38;3.35;;;16.30;38.10;;;;;;6163415;28;20069;-79
2022/03/19 13:08:59;;;;;;;8.55;3.70;;;16.30;37.90;;;;;;6215489;28;20141;-79
2022/03/19 13:12:04;;;;;;;6.60;3.20;;;16.40;38.00;;;;;;6248692;28;20057;-78
2022/03/19 13:15:16;;;;;;;18.55;3.50;;;16.50;37.00;;;;;;6248863;28;20065;-78
2022/03/19 13:18:28;;;;;;;6.88;2.40;;;16.10;35.50;;;;;;6249821;28;20464;-78
2022/03/19 13:21:31;;;;;;;7.40;3.10;;;16.10;36.40;;;;;;6254985;28;20529;-79
2022/03/19 13:24:36;;;;;;;6.45;3.17;;;16.20;36.20;;;;;;6255950;28;20116;-79
2022/03/19 13:27:39;;;;;;;9.27;3.90;;;16.30;36.20;;;;;;6254224;28;20049;-78
2022/03/19 13:30:44;;;;;;;8.80;3.08;;;16.50;36.00;;;;;;6253319;28;20655;-78
2022/03/19 13:33:46;;;;;;;6.47;3.20;;;16.40;36.60;;;;;;6253813;28;20053;-78
2022/03/19 13:36:51;;;;;;;8.82;5.10;;;16.00;36.40;;;;;;6249978;28;20048;-79
2022/03/19 13:40:00;;;;;;;9.00;3.05;;;15.80;36.70;;;;;;6255318;28;20049;-80
2022/03/19 13:43:03;;;;;;;4.32;2.47;;;15.80;35.20;;;;;;6254007;28;20053;-81
2022/03/19 13:46:11;;;;;;;5.20;2.30;;;15.80;34.50;;;;;;6252479;28;20050;-81
2022/03/19 13:49:17;;;;;;;7.97;2.47;;;15.70;35.20;;;;;;6254257;28;20050;-80
2022/03/19 13:52:33;;;;;;;5.63;1.92;;;15.80;35.40;;;;;;6255267;28;20133;-80
2022/03/19 13:55:39;;;;;;;6.68;2.30;;;16.40;34.80;;;;;;6253381;28;20073;-80
2022/03/19 13:58:59;;;;;;;7.60;2.00;;;16.20;34.70;;;;;;6254501;28;20049;-79
2022/03/19 14:02:02;;;;;;;7.47;2.38;;;15.90;33.90;;;;;;6252669;28;20502;-80
2022/03/19 14:05:06;;;;;;;3.85;1.80;;;15.80;33.10;;;;;;6251351;28;20046;-79
2022/03/19 14:08:10;;;;;;;1.67;0.98;;;15.80;31.50;;;;;;6250944;28;20062;-80
2022/03/19 14:11:13;;;;;;;3.72;1.65;;;15.60;31.40;;;;;;6250919;28;20466;-81
2022/03/19 14:14:18;;;;;;;3.03;1.55;;;15.50;31.40;;;;;;6233616;28;20045;-78
2022/03/19 14:17:20;;;;;;;3.10;1.48;;;15.50;31.60;;;;;;6250049;28;20052;-80
2022/03/19 14:20:23;;;;;;;5.72;1.83;;;15.50;31.00;;;;;;6252746;28;20483;-82
2022/03/19 14:23:25;;;;;;;5.60;1.92;;;15.70;31.60;;;;;;6252604;28;20045;-79
2022/03/19 14:26:27;;;;;;;2.85;1.60;;;15.80;31.00;;;;;;6250491;28;20046;-80
2022/03/19 14:29:31;;;;;;;3.45;1.45;;;15.80;31.30;;;;;;6252312;28;20141;-80
2022/03/19 14:32:33;;;;;;;3.45;1.50;;;15.80;30.70;;;;;;6255186;28;20057;-81
2022/03/19 14:35:46;;;;;;;3.72;1.63;;;15.60;30.50;;;;;;6252694;28;20108;-78
2022/03/19 14:38:49;;;;;;;3.35;1.38;;;15.60;31.30;;;;;;6252453;28;20064;-81
2022/03/19 14:41:51;;;;;;;3.15;1.35;;;15.70;31.10;;;;;;6251094;28;20045;-80
2022/03/19 14:44:58;;;;;;;5.75;1.40;;;16.00;30.60;;;;;;6252876;28;20131;-79
2022/03/19 14:47:59;;;;;;;3.53;1.52;;;16.00;30.40;;;;;;6249523;28;20132;-80
2022/03/19 14:51:04;;;;;;;2.28;1.10;;;16.00;30.20;;;;;;6251997;28;20109;-80
2022/03/19 14:54:05;;;;;;;1.48;1.00;;;16.10;29.30;;;;;;6248947;28;20077;-79
2022/03/19 14:57:07;;;;;;;3.03;1.15;;;16.00;29.30;;;;;;6248597;28;20132;-79
2022/03/19 15:00:12;;;;;;;4.47;1.38;;;15.80;29.70;;;;;;6243911;28;20101;-81
2022/03/19 15:03:13;;;;;;;5.05;1.20;;;15.90;29.40;;;;;;6251026;28;20072;-79
2022/03/19 15:06:16;;;;;;;4.38;1.13;;;15.80;29.00;;;;;;6241992;28;20064;-79
2022/03/19 15:09:18;;;;;;;2.72;1.25;;;15.60;29.10;;;;;;6227971;28;20054;-79
2022/03/19 15:12:20;;;;;;;2.45;1.08;;;15.20;28.70;;;;;;6236920;28;20053;-81
2022/03/19 15:15:23;;;;;;;5.10;1.05;;;14.70;28.50;;;;;;6249173;28;20051;-80
2022/03/19 15:18:28;;;;;;;2.38;1.20;;;14.30;28.60;;;;;;6250378;28;20067;-79
2022/03/19 15:21:32;;;;;;;2.35;0.75;;;14.20;28.70;;;;;;6251892;28;20088;-80
2022/03/19 15:24:34;;;;;;;2.67;0.77;;;14.10;27.90;;;;;;6269135;28;20140;-81
2022/03/19 15:27:37;;;;;;;3.42;0.70;;;14.00;27.70;;;;;;6262627;28;20069;-81
2022/03/19 15:30:40;;;;;;;5.53;1.08;;;13.90;28.10;;;;;;6248464;28;20063;-82
2022/03/19 15:33:42;;;;;;;4.00;1.05;;;13.80;28.90;;;;;;6247599;28;20060;-78
2022/03/19 15:36:46;;;;;;;3.58;1.15;;;13.70;29.20;;;;;;6247391;28;20042;-83
2022/03/19 15:39:48;;;;;;;2.53;1.00;;;13.70;29.70;;;;;;6249071;28;20169;-81
2022/03/19 15:42:50;;;;;;;1.45;1.05;;;13.60;29.30;;;;;;6245713;28;20145;-79
2022/03/19 15:45:53;;;;;;;1.88;0.98;;;13.30;29.70;;;;;;6246220;28;20049;-81
2022/03/19 15:48:55;;;;;;;3.30;1.42;;;13.10;30.10;;;;;;6248070;28;20053;-82
2022/03/19 15:51:57;;;;;;;2.25;1.13;;;13.00;30.90;;;;;;6247089;28;20604;-80
2022/03/19 15:54:58;;;;;;;2.28;1.15;;;12.80;31.10;;;;;;6250512;28;20053;-79
2022/03/19 15:58:01;;;;;;;2.58;1.30;;;12.60;30.70;;;;;;6246817;28;20204;-81
2022/03/19 16:01:04;;;;;;;3.70;1.50;;;12.50;30.50;;;;;;6247730;28;20155;-81
2022/03/19 16:04:07;;;;;;;1.77;1.10;;;12.50;30.70;;;;;;6247634;28;20037;-81
2022/03/19 16:07:08;;;;;;;2.08;1.40;;;12.30;30.70;;;;;;6233473;28;20049;-80
2022/03/19 16:10:11;;;;;;;4.47;1.27;;;12.30;31.60;;;;;;6222063;28;20054;-81
2022/03/19 16:13:13;;;;;;;4.00;1.17;;;12.40;31.20;;;;;;6232583;28;20045;-80
2022/03/19 16:16:16;;;;;;;0.90;0.73;;;12.30;30.50;;;;;;6245637;28;20055;-79